TimeAKDT,TemperatureF,Dew PointF,Humidity,Sea Level PressureIn,VisibilityMPH,Wind Direction,Wind SpeedMPH,Gust SpeedMPH,PrecipitationIn,Events,Conditions,WindDirDegrees,DateUTC
12:53 AM,30.9,24.1,76,29.95,10.0,NNW,4.6,-,N/A,,Clear,330,2012-09-30 08:53:00
1:53 AM,30.9,23.0,72,29.96,10.0,NNW,6.9,-,N/A,,Clear,330,2012-09-30 09:53:00
2:53 AM,32.0,24.1,73,29.97,10.0,North,8.1,-,N/A,,Mostly Cloudy,350,2012-09-30 10:53:00
3:53 AM,30.9,25.0,79,29.99,10.0,North,5.8,-,N/A,,Mostly Cloudy,350,2012-09-30 11:53:00
4:53 AM,30.0,24.1,79,30.01,10.0,North,5.8,-,N/A,,Clear,350,2012-09-30 12:53:00
5:53 AM,28.9,24.1,82,30.01,10.0,North,5.8,-,N/A,,Partly Cloudy,360,2012-09-30 13:53:00
6:53 AM,28.9,24.1,82,30.02,10.0,North,6.9,-,N/A,,Partly Cloudy,360,2012-09-30 14:53:00
7:53 AM,30.0,25.0,82,30.04,10.0,North,5.8,-,N/A,,Partly Cloudy,360,2012-09-30 15:53:00
8:53 AM,28.9,25.0,85,30.05,10.0,North,5.8,-,N/A,,Clear,360,2012-09-30 16:53:00
9:53 AM,32.0,26.1,79,30.06,10.0,North,4.6,-,N/A,,Clear,360,2012-09-30 17:53:00
10:53 AM,36.0,28.0,73,30.08,10.0,North,5.8,-,N/A,,Clear,360,2012-09-30 18:53:00
11:53 AM,39.0,28.0,65,30.08,10.0,Calm,Calm,-,N/A,,Clear,0,2012-09-30 19:53:00
12:53 PM,42.1,27.0,55,30.08,10.0,Calm,Calm,-,N/A,,Clear,0,2012-09-30 20:53:00
1:53 PM,44.1,25.0,47,30.08,10.0,Calm,Calm,-,N/A,,Clear,0,2012-09-30 21:53:00
2:53 PM,45.0,28.0,52,30.07,10.0,Variable,4.6,-,N/A,,Clear,0,2012-09-30 22:53:00
3:53 PM,45.0,27.0,49,30.07,10.0,SW,4.6,-,N/A,,Clear,230,2012-09-30 23:53:00
4:53 PM,45.0,26.1,48,30.07,10.0,SSW,6.9,-,N/A,,Clear,210,2012-10-01 00:53:00
5:53 PM,43.0,26.1,51,30.07,10.0,SSW,5.8,-,N/A,,Clear,200,2012-10-01 01:53:00
6:53 PM,42.1,27.0,55,30.07,10.0,SW,4.6,-,N/A,,Clear,220,2012-10-01 02:53:00
7:53 PM,37.9,26.1,62,30.08,10.0,WSW,4.6,-,N/A,,Clear,250,2012-10-01 03:53:00
8:53 PM,30.9,25.0,79,30.09,10.0,West,3.5,-,N/A,,Clear,280,2012-10-01 04:53:00
9:53 PM,30.9,27.0,85,30.10,10.0,Calm,Calm,-,N/A,,Clear,0,2012-10-01 05:53:00
10:53 PM,30.0,27.0,88,30.12,10.0,North,3.5,-,N/A,,Clear,350,2012-10-01 06:53:00
11:53 PM,30.0,25.0,82,30.13,10.0,North,3.5,-,N/A,,Clear,10,2012-10-01 07:53:00